Big Bear Station Historical Data
Daily Summary for April 17, 2017 Units:  English    Metric   Both
« Previous Day
Next Day »
Daily Weekly Monthly Yearly Custom
  High: Low: Average:
Temperature: 62.4 °F 40.8 °F 49.5 °F
Dew Point: 42.2 °F 9.5 °F 30.2 °F
Humidity: 84 % 24 % 50 %
Wind Speed: 6.8 mph 0.0 mph 2.1 mph
Wind Gust: -999.0 mph - -
Wind:- - SW
Pressure: 30.20 in 30.16 in -
Precipitation: 0.00 in    
Historical Graphs
 
 
Tabular Data for April 17, 2017
Time Temperature Dew Point Pressure Wind Wind Speed Wind Gust Humidity Rainfall Rate (Hourly)
00:00 46.4 °F 11.5 °F 30.18 in Calm   -999.0 mph 24 % 0 in
00:15 46.2 °F 17.2 °F 30.18 in SSW 1.1 mph -999.0 mph 31 % 0 in
00:31 45.9 °F 23.5 °F 30.19 in West 1.7 mph -999.0 mph 41 % 0 in
00:46 45.3 °F 23.5 °F 30.18 in Calm   -999.0 mph 42 % 0 in
01:01 44.4 °F 19.7 °F 30.18 in SSE 1.1 mph -999.0 mph 37 % 0 in
01:17 43.9 °F 11.2 °F 30.18 in SSW 1.7 mph -999.0 mph 26 % 0 in
01:32 43.9 °F 10.3 °F 30.18 in Calm   -999.0 mph 25 % 0 in
01:47 43.7 °F 10.1 °F 30.18 in Calm   -999.0 mph 25 % 0 in
02:02 43.3 °F 15.4 °F 30.17 in Calm   -999.0 mph 32 % 0 in
02:17 43.2 °F 14.6 °F 30.16 in Calm   -999.0 mph 31 % 0 in
02:33 42.8 °F 11.9 °F 30.16 in Calm   -999.0 mph 28 % 0 in
02:48 43.2 °F 13.1 °F 30.16 in SSW 1.7 mph -999.0 mph 29 % 0 in
03:03 42.6 °F 10.9 °F 30.16 in Calm   -999.0 mph 27 % 0 in
03:18 42.6 °F 10.9 °F 30.16 in Calm   -999.0 mph 27 % 0 in
03:33 43.2 °F 15.3 °F 30.16 in Calm   -999.0 mph 32 % 0 in
03:49 43.0 °F 9.5 °F 30.17 in South 1.7 mph -999.0 mph 25 % 0 in
04:04 42.4 °F 10.7 °F 30.17 in SSW 2.2 mph -999.0 mph 27 % 0 in
04:19 41.9 °F 11.1 °F 30.17 in South 2.2 mph -999.0 mph 28 % 0 in
04:34 41.2 °F 9.7 °F 30.17 in Calm   -999.0 mph 27 % 0 in
04:49 40.8 °F 11.0 °F 30.17 in South 1.1 mph -999.0 mph 29 % 0 in
05:05 41.0 °F 12.6 °F 30.17 in South 1.7 mph -999.0 mph 31 % 0 in
05:20 41.0 °F 16.7 °F 30.17 in South 2.7 mph -999.0 mph 37 % 0 in
05:35 40.8 °F 17.7 °F 30.17 in SSW 2.2 mph -999.0 mph 39 % 0 in
05:50 41.7 °F 14.7 °F 30.17 in South 1.1 mph -999.0 mph 33 % 0 in
06:06 42.1 °F 16.4 °F 30.17 in SSW 1.7 mph -999.0 mph 35 % 0 in
06:21 41.5 °F 16.5 °F 30.17 in SSW 2.2 mph -999.0 mph 36 % 0 in
06:36 41.5 °F 20.1 °F 30.18 in SSW 2.2 mph -999.0 mph 42 % 0 in
06:51 41.2 °F 26.2 °F 30.18 in SSW 2.7 mph -999.0 mph 55 % 0 in
07:07 40.8 °F 30.3 °F 30.18 in Calm   -999.0 mph 66 % 0 in
07:22 41.5 °F 31.7 °F 30.18 in WNW 1.1 mph -999.0 mph 68 % 0 in
07:37 44.6 °F 34.3 °F 30.18 in ESE 1.1 mph -999.0 mph 67 % 0 in
07:53 46.9 °F 35.4 °F 30.18 in Calm   -999.0 mph 64 % 0 in
08:08 48.0 °F 37.2 °F 30.18 in WNW 1.7 mph -999.0 mph 66 % 0 in
08:23 49.1 °F 37.0 °F 30.18 in NNW 2.7 mph -999.0 mph 63 % 0 in
08:38 49.8 °F 36.9 °F 30.18 in NNW 3.2 mph -999.0 mph 61 % 0 in
08:53 50.7 °F 36.9 °F 30.19 in WSW 6.3 mph -999.0 mph 59 % 0 in
09:09 51.4 °F 35.8 °F 30.19 in NW 3.7 mph -999.0 mph 55 % 0 in
09:24 52.2 °F 36.1 °F 30.19 in NW 3.2 mph -999.0 mph 54 % 0 in
09:40 53.6 °F 35.4 °F 30.19 in NNW 4.2 mph -999.0 mph 50 % 0 in
09:56 53.6 °F 35.4 °F 30.20 in NW 5.3 mph -999.0 mph 50 % 0 in
10:11 53.6 °F 35.9 °F 30.20 in NNW 2.2 mph -999.0 mph 51 % 0 in
10:26 54.1 °F 36.4 °F 30.19 in NE 2.7 mph -999.0 mph 51 % 0 in
10:41 56.1 °F 36.1 °F 30.19 in NW 4.7 mph -999.0 mph 47 % 0 in
10:57 57.6 °F 35.8 °F 30.20 in WNW 4.7 mph -999.0 mph 44 % 0 in
11:12 58.8 °F 36.3 °F 30.20 in NNW 4.2 mph -999.0 mph 43 % 0 in
11:27 60.3 °F 37.7 °F 30.20 in SSW 4.2 mph -999.0 mph 43 % 0 in
11:42 60.6 °F 38.6 °F 30.20 in NW 3.7 mph -999.0 mph 44 % 0 in
11:58 59.2 °F 39.5 °F 30.20 in SE 2.7 mph -999.0 mph 48 % 0 in
12:13 60.6 °F 36.8 °F 30.19 in West 2.7 mph -999.0 mph 41 % 0 in
12:29 60.1 °F 37.5 °F 30.20 in West 1.7 mph -999.0 mph 43 % 0 in
12:44 62.1 °F 36.2 °F 30.19 in NNW 4.7 mph -999.0 mph 38 % 0 in
12:59 60.3 °F 35.9 °F 30.19 in South 5.3 mph -999.0 mph 40 % 0 in
13:15 61.9 °F 34.6 °F 30.19 in West 6.8 mph -999.0 mph 36 % 0 in
13:30 62.1 °F 33.4 °F 30.19 in East 2.2 mph -999.0 mph 34 % 0 in
13:46 58.6 °F 35.0 °F 30.19 in NNW 4.2 mph -999.0 mph 41 % 0 in
14:01 61.3 °F 34.1 °F 30.19 in NNW 4.7 mph -999.0 mph 36 % 0 in
14:16 62.4 °F 34.4 °F 30.19 in WNW 5.3 mph -999.0 mph 35 % 0 in
14:31 62.4 °F 35.8 °F 30.19 in South 2.2 mph -999.0 mph 37 % 0 in
14:47 59.5 °F 35.8 °F 30.19 in WSW 2.2 mph -999.0 mph 41 % 0 in
15:02 59.5 °F 34.5 °F 30.19 in SW 2.7 mph -999.0 mph 39 % 0 in
15:17 60.3 °F 37.1 °F 30.19 in South 5.8 mph -999.0 mph 42 % 0 in
15:32 58.8 °F 38.6 °F 30.19 in NNW 2.7 mph -999.0 mph 47 % 0 in
15:47 58.6 °F 38.4 °F 30.19 in WNW 2.7 mph -999.0 mph 47 % 0 in
16:03 58.6 °F 38.4 °F 30.19 in West 2.2 mph -999.0 mph 47 % 0 in
16:18 57.2 °F 37.7 °F 30.18 in ESE 2.2 mph -999.0 mph 48 % 0 in
16:33 56.1 °F 37.7 °F 30.18 in South 4.2 mph -999.0 mph 50 % 0 in
16:48 55.2 °F 39.8 °F 30.18 in NW 3.2 mph -999.0 mph 56 % 0 in
17:04 54.5 °F 39.6 °F 30.18 in SW 1.1 mph -999.0 mph 57 % 0 in
17:20 57.2 °F 38.7 °F 30.18 in NW 4.2 mph -999.0 mph 50 % 0 in
17:35 59.0 °F 40.4 °F 30.18 in SSW 2.2 mph -999.0 mph 50 % 0 in
17:50 58.6 °F 41.5 °F 30.18 in North 3.2 mph -999.0 mph 53 % 0 in
18:05 58.3 °F 42.2 °F 30.18 in SE 3.7 mph -999.0 mph 55 % 0 in
18:21 57.7 °F 42.1 °F 30.18 in South 1.7 mph -999.0 mph 56 % 0 in
18:36 54.3 °F 40.7 °F 30.18 in SSW 2.7 mph -999.0 mph 60 % 0 in
18:51 51.1 °F 40.9 °F 30.18 in NNW 1.1 mph -999.0 mph 68 % 0 in
19:06 49.1 °F 39.7 °F 30.18 in Calm   -999.0 mph 70 % 0 in
19:21 47.8 °F 40.6 °F 30.18 in Calm   -999.0 mph 76 % 0 in
19:37 46.6 °F 41.1 °F 30.19 in SSW 1.1 mph -999.0 mph 81 % 0 in
19:52 45.9 °F 39.8 °F 30.19 in Calm   -999.0 mph 79 % 0 in
20:07 44.6 °F 39.4 °F 30.19 in South 1.7 mph -999.0 mph 82 % 0 in
20:22 44.1 °F 39.6 °F 30.19 in NNW 1.1 mph -999.0 mph 84 % 0 in
20:37 43.7 °F 38.9 °F 30.19 in South 1.7 mph -999.0 mph 83 % 0 in
20:53 43.2 °F 35.1 °F 30.19 in South 1.7 mph -999.0 mph 73 % 0 in
21:08 42.3 °F 33.9 °F 30.20 in Calm   -999.0 mph 72 % 0 in
21:23 42.1 °F 34.1 °F 30.20 in South 1.1 mph -999.0 mph 73 % 0 in
21:38 42.8 °F 34.7 °F 30.20 in Calm   -999.0 mph 73 % 0 in
21:53 42.3 °F 35.3 °F 30.20 in Calm   -999.0 mph 76 % 0 in
22:09 42.4 °F 34.7 °F 30.20 in Calm   -999.0 mph 74 % 0 in
22:24 42.6 °F 33.9 °F 30.19 in SE 1.7 mph -999.0 mph 71 % 0 in
22:40 42.3 °F 33.6 °F 30.20 in SSE 1.1 mph -999.0 mph 71 % 0 in
22:55 42.4 °F 33.0 °F 30.20 in SSW 2.2 mph -999.0 mph 69 % 0 in
23:10 42.1 °F 33.0 °F 30.20 in Calm   -999.0 mph 70 % 0 in
23:25 42.1 °F 33.0 °F 30.20 in Calm   -999.0 mph 70 % 0 in
23:40 42.4 °F 33.3 °F 30.20 in South 1.1 mph -999.0 mph 70 % 0 in
23:56 42.4 °F 33.0 °F 30.20 in SSE 1.1 mph -999.0 mph 69 % 0 in
Big Bear CA Weather
Compliments of Weather Underground - 1.5 mb